Time;durP1;ratioP1;P1;durP2;ratioP2;P2;SDS_P1;SDS_P2;PMS_P1;PMS_P2;Temp;Humidity;BMP_temperature;BMP_pressure;BME280_temperature;BME280_humidity;BME280_pressure;Samples;Min_cycle;Max_cycle;Signal;HPM_P1;HPM_P2
2021/01/19 00:00:47;;;;;;;3.85;1.35;;;15.30;60.70;;;;;;5034939;28;20047;-44
2021/01/19 00:03:12;;;;;;;2.20;1.10;;;15.30;60.70;;;;;;5034970;28;20033;-45
2021/01/19 00:05:40;;;;;;;1.90;1.02;;;15.30;60.70;;;;;;5035427;28;20476;-44
2021/01/19 00:08:05;;;;;;;2.30;1.00;;;15.30;60.70;;;;;;5016822;28;20466;-44
2021/01/19 00:10:31;;;;;;;1.80;0.85;;;15.30;60.70;;;;;;5034631;28;20056;-45
2021/01/19 00:12:57;;;;;;;1.73;0.90;;;15.30;60.70;;;;;;5034793;28;20029;-45
2021/01/19 00:15:22;;;;;;;2.97;1.25;;;15.20;60.70;;;;;;5034296;28;20100;-46
2021/01/19 00:17:48;;;;;;;1.77;0.90;;;15.20;60.60;;;;;;5034449;28;20018;-45
2021/01/19 00:20:13;;;;;;;3.05;1.45;;;15.20;60.60;;;;;;5034626;28;20544;-48
2021/01/19 00:22:39;;;;;;;2.83;1.20;;;15.20;60.60;;;;;;5034222;28;20496;-45
2021/01/19 00:25:05;;;;;;;3.33;1.20;;;15.20;60.60;;;;;;5034241;28;20036;-45
2021/01/19 00:27:31;;;;;;;2.33;1.08;;;15.20;60.70;;;;;;5034267;28;20104;-45
2021/01/19 00:29:56;;;;;;;2.38;0.95;;;15.20;60.60;;;;;;5034162;28;20459;-45
2021/01/19 00:32:22;;;;;;;4.00;0.98;;;15.10;60.60;;;;;;5034496;28;20105;-46
2021/01/19 00:34:47;;;;;;;2.83;1.00;;;15.20;60.60;;;;;;5034107;28;20029;-44
2021/01/19 00:37:13;;;;;;;2.50;1.10;;;15.00;60.50;;;;;;5034476;28;20018;-46
2021/01/19 00:39:39;;;;;;;2.58;1.27;;;15.30;60.80;;;;;;5034100;28;20028;-45
2021/01/19 00:42:04;;;;;;;1.35;0.70;;;15.10;60.50;;;;;;5033850;28;20087;-45
2021/01/19 00:44:30;;;;;;;1.02;0.65;;;15.10;60.60;;;;;;5033228;28;20025;-45
2021/01/19 00:46:55;;;;;;;2.10;0.90;;;15.00;60.60;;;;;;5034155;28;20049;-44
2021/01/19 00:49:21;;;;;;;3.67;1.17;;;15.10;60.60;;;;;;5033894;28;20415;-45
2021/01/19 00:51:47;;;;;;;1.10;0.88;;;15.10;60.60;;;;;;5034005;28;20026;-45
2021/01/19 00:54:12;;;;;;;2.35;0.80;;;15.00;60.60;;;;;;5033632;28;20384;-46
2021/01/19 00:56:39;;;;;;;2.85;1.10;;;15.00;60.50;;;;;;5033662;28;20047;-45
2021/01/19 00:59:05;;;;;;;1.30;0.80;;;15.00;60.60;;;;;;5033855;28;20021;-45
2021/01/19 01:01:32;;;;;;;2.17;1.35;;;14.90;60.50;;;;;;5015988;28;20045;-45
2021/01/19 01:03:58;;;;;;;3.28;0.93;;;15.00;60.50;;;;;;5033404;28;20021;-45
2021/01/19 01:06:23;;;;;;;2.35;1.00;;;15.00;60.50;;;;;;5034208;28;20452;-44
2021/01/19 01:08:49;;;;;;;1.80;1.10;;;15.00;60.50;;;;;;5033849;28;20021;-44
2021/01/19 01:11:15;;;;;;;2.45;1.23;;;15.00;60.40;;;;;;5033308;28;20040;-45
2021/01/19 01:13:41;;;;;;;1.83;0.80;;;14.90;60.40;;;;;;5033334;28;20025;-44
2021/01/19 01:16:12;;;;;;;2.20;0.75;;;15.00;60.50;;;;;;5033619;28;20460;-45
2021/01/19 01:18:37;;;;;;;2.35;1.00;;;14.90;60.40;;;;;;5033169;28;20036;-44
2021/01/19 01:21:03;;;;;;;2.55;1.08;;;14.90;60.40;;;;;;5033435;28;20025;-45
2021/01/19 01:23:28;;;;;;;2.38;1.05;;;14.90;60.40;;;;;;5033076;28;20519;-44
2021/01/19 01:25:54;;;;;;;1.65;1.05;;;14.90;60.40;;;;;;5033316;28;20065;-45
2021/01/19 01:28:20;;;;;;;2.38;0.88;;;14.80;60.30;;;;;;5033398;28;20112;-48
2021/01/19 01:30:45;;;;;;;2.78;0.80;;;15.00;60.40;;;;;;5033279;28;20383;-45
2021/01/19 01:33:11;;;;;;;2.28;0.98;;;14.80;60.40;;;;;;5033071;28;20022;-44
2021/01/19 01:35:36;;;;;;;2.30;1.00;;;14.80;60.30;;;;;;5033243;28;20626;-46
2021/01/19 01:38:02;;;;;;;2.38;1.30;;;14.80;60.30;;;;;;5032828;28;20419;-45
2021/01/19 01:40:28;;;;;;;1.50;0.82;;;14.80;60.30;;;;;;5032884;28;20033;-45
2021/01/19 01:42:55;;;;;;;2.78;1.95;;;14.80;60.30;;;;;;5033053;28;20448;-45
2021/01/19 01:45:24;;;;;;;2.60;1.00;;;14.80;60.30;;;;;;5032937;28;20021;-44
2021/01/19 01:47:51;;;;;;;2.00;0.88;;;14.80;60.30;;;;;;5032662;28;20029;-45
2021/01/19 01:50:18;;;;;;;2.00;1.00;;;14.80;60.30;;;;;;5032796;28;20479;-45
2021/01/19 01:52:44;;;;;;;1.90;1.17;;;14.80;60.30;;;;;;5032626;28;20487;-45
2021/01/19 01:55:10;;;;;;;3.25;0.93;;;14.80;60.20;;;;;;5032624;28;20380;-46
2021/01/19 01:57:39;;;;;;;2.25;1.20;;;14.50;77.50;;;;;;5032591;28;20021;-44
2021/01/19 02:00:07;;;;;;;2.45;1.08;;;14.80;60.20;;;;;;5032220;28;20078;-45
2021/01/19 02:02:33;;;;;;;2.78;0.85;;;14.70;60.10;;;;;;5032523;28;20041;-45
2021/01/19 02:04:59;;;;;;;1.35;0.70;;;14.60;60.10;;;;;;5032710;28;20040;-45
2021/01/19 02:07:48;;;;;;;1.45;0.75;;;14.70;60.10;;;;;;5032069;28;20057;-46
2021/01/19 02:10:52;;;;;;;1.20;0.77;;;14.70;60.10;;;;;;5032429;28;20018;-44
2021/01/19 02:13:55;;;;;;;1.60;0.82;;;14.70;60.10;;;;;;4981876;28;20044;-44
2021/01/19 02:16:30;;;;;;;3.08;1.20;;;14.70;60.10;;;;;;5032138;28;20095;-44
2021/01/19 02:19:14;;;;;;;3.50;1.08;;;14.70;60.10;;;;;;5032518;28;20132;-45
2021/01/19 02:22:08;;;;;;;3.60;1.33;;;14.70;60.80;;;;;;5032416;28;20037;-46
2021/01/19 02:24:57;;;;;;;2.10;0.70;;;14.70;60.10;;;;;;5032291;28;20084;-44
2021/01/19 02:27:46;;;;;;;1.73;0.93;;;14.70;60.10;;;;;;5031530;28;20021;-46
2021/01/19 02:30:49;;;;;;;1.30;0.70;;;14.70;60.10;;;;;;5031931;28;20025;-45
2021/01/19 02:33:42;;;;;;;3.58;1.02;;;14.70;60.10;;;;;;4995975;28;20541;-44
2021/01/19 02:36:19;;;;;;;2.55;0.80;;;14.60;60.10;;;;;;5032341;28;20048;-45
2021/01/19 02:38:56;;;;;;;2.58;1.13;;;14.60;60.10;;;;;;5014273;28;20132;-44
2021/01/19 02:41:23;;;;;;;1.20;0.90;;;14.80;60.10;;;;;;5031694;28;20491;-44
2021/01/19 02:44:00;;;;;;;2.03;0.90;;;14.60;60.00;;;;;;5014164;28;20013;-46
2021/01/19 02:46:27;;;;;;;1.92;1.08;;;14.60;60.00;;;;;;5031930;28;20021;-45
2021/01/19 02:48:54;;;;;;;2.67;1.10;;;14.50;60.00;;;;;;5031786;28;20028;-44
2021/01/19 02:51:21;;;;;;;6.53;1.30;;;14.60;60.00;;;;;;5032075;28;20690;-46
2021/01/19 02:53:50;;;;;;;2.65;1.30;;;14.50;60.00;;;;;;5031729;28;20124;-46
2021/01/19 02:56:26;;;;;;;1.95;1.00;;;14.50;60.00;;;;;;5031570;28;20028;-44
2021/01/19 02:59:21;;;;;;;1.42;0.93;;;14.50;60.00;;;;;;5031830;28;20049;-46
2021/01/19 03:02:04;;;;;;;2.30;0.82;;;14.50;60.00;;;;;;5020793;28;20137;-44
2021/01/19 03:04:30;;;;;;;2.60;0.95;;;14.50;60.00;;;;;;5032002;28;20026;-45
2021/01/19 03:07:00;;;;;;;2.50;1.00;;;14.50;60.00;;;;;;5032507;28;20585;-45
2021/01/19 03:09:27;;;;;;;2.45;0.80;;;14.30;59.90;;;;;;5035713;28;20480;-45
2021/01/19 03:11:55;;;;;;;1.83;0.85;;;14.50;60.00;;;;;;5035767;28;20076;-46
2021/01/19 03:14:21;;;;;;;3.53;1.13;;;14.50;60.00;;;;;;5035697;28;20025;-45
2021/01/19 03:16:47;;;;;;;1.88;0.80;;;14.50;60.00;;;;;;5035895;28;20379;-45
2021/01/19 03:19:16;;;;;;;4.25;1.10;;;14.40;60.00;;;;;;5035797;28;20022;-46
2021/01/19 03:21:42;;;;;;;2.70;1.10;;;14.50;60.00;;;;;;5035070;28;20033;-46
2021/01/19 03:24:07;;;;;;;1.75;1.10;;;14.30;59.90;;;;;;5035684;28;20026;-44
2021/01/19 03:26:33;;;;;;;2.83;0.90;;;14.40;60.00;;;;;;5035697;28;20060;-44
2021/01/19 03:28:59;;;;;;;2.83;1.50;;;14.40;60.00;;;;;;5035337;28;20026;-45
2021/01/19 03:31:24;;;;;;;2.17;0.90;;;14.40;60.00;;;;;;5035525;28;20033;-45
2021/01/19 03:33:50;;;;;;;3.60;1.33;;;14.40;60.00;;;;;;5035354;28;20078;-46
2021/01/19 03:36:15;;;;;;;1.35;0.88;;;14.40;60.00;;;;;;5017788;28;20022;-45
2021/01/19 03:38:41;;;;;;;1.65;0.88;;;14.40;60.00;;;;;;5035217;28;20091;-45
2021/01/19 03:41:06;;;;;;;2.70;1.27;;;14.30;59.90;;;;;;5034905;28;20026;-46
2021/01/19 03:43:32;;;;;;;2.50;1.05;;;14.40;60.00;;;;;;5035385;28;20030;-45
2021/01/19 03:45:58;;;;;;;3.35;1.00;;;14.40;60.00;;;;;;5035269;28;20110;-44
2021/01/19 03:48:24;;;;;;;2.95;0.90;;;14.40;60.00;;;;;;5035300;28;20021;-45
2021/01/19 03:50:49;;;;;;;3.65;1.10;;;14.20;59.80;;;;;;5035236;28;20025;-45
2021/01/19 03:53:15;;;;;;;2.67;1.30;;;14.30;59.90;;;;;;5035206;28;20036;-45
2021/01/19 03:55:40;;;;;;;1.88;1.10;;;14.30;59.90;;;;;;5034955;28;20101;-45
2021/01/19 03:58:06;;;;;;;1.77;0.90;;;14.20;59.80;;;;;;5035088;28;20031;-45
2021/01/19 04:00:31;;;;;;;2.08;1.10;;;14.30;59.90;;;;;;5034818;28;20022;-44
2021/01/19 04:02:57;;;;;;;1.83;1.00;;;14.20;59.80;;;;;;5035116;28;20108;-44
2021/01/19 04:05:23;;;;;;;1.70;0.73;;;14.30;59.90;;;;;;5017086;28;20486;-44
2021/01/19 04:07:48;;;;;;;2.50;1.17;;;14.30;59.90;;;;;;5035467;28;20053;-45
2021/01/19 04:10:14;;;;;;;2.78;1.10;;;14.30;59.90;;;;;;5034714;28;20033;-45
2021/01/19 04:12:41;;;;;;;1.27;0.98;;;14.30;59.90;;;;;;5034539;28;20372;-45
2021/01/19 04:15:08;;;;;;;1.25;0.90;;;14.30;59.90;;;;;;5034654;28;20029;-44
2021/01/19 04:17:34;;;;;;;2.08;1.02;;;14.30;59.90;;;;;;5016557;28;20434;-45
2021/01/19 04:19:59;;;;;;;1.55;0.95;;;14.30;60.00;;;;;;5034752;28;20021;-45
2021/01/19 04:22:26;;;;;;;1.98;1.10;;;14.30;59.90;;;;;;5034438;28;20534;-44
2021/01/19 04:24:52;;;;;;;3.38;1.33;;;14.20;59.90;;;;;;5034372;28;20033;-45
2021/01/19 04:27:19;;;;;;;2.15;1.15;;;14.20;59.90;;;;;;5034339;28;20021;-45
2021/01/19 04:29:44;;;;;;;2.47;1.13;;;14.20;59.90;;;;;;5034419;28;20024;-45
2021/01/19 04:32:11;;;;;;;2.10;1.00;;;14.20;59.90;;;;;;5034428;28;20029;-45
2021/01/19 04:34:37;;;;;;;2.53;1.35;;;14.20;59.90;;;;;;5034453;28;20099;-44
2021/01/19 04:37:02;;;;;;;3.35;1.17;;;14.20;59.90;;;;;;5034219;28;20018;-45
2021/01/19 04:39:29;;;;;;;2.00;1.13;;;14.20;59.90;;;;;;5034039;28;20487;-44
2021/01/19 04:41:55;;;;;;;2.10;1.00;;;14.20;59.90;;;;;;5033861;28;20030;-45
2021/01/19 04:44:22;;;;;;;1.58;0.95;;;14.20;59.90;;;;;;5033996;28;20079;-45
2021/01/19 04:46:48;;;;;;;1.42;0.80;;;14.10;59.90;;;;;;5034034;28;20032;-44
2021/01/19 04:49:15;;;;;;;2.72;1.40;;;14.20;60.00;;;;;;5033936;28;20018;-46
2021/01/19 04:51:45;;;;;;;3.17;0.98;;;14.20;59.90;;;;;;5033804;28;20018;-44
2021/01/19 04:54:14;;;;;;;3.65;1.02;;;14.10;59.90;;;;;;5034003;28;20036;-45
2021/01/19 04:56:56;;;;;;;1.40;0.80;;;14.20;59.90;;;;;;5033710;28;20052;-44
2021/01/19 04:59:23;;;;;;;1.40;0.90;;;14.10;59.90;;;;;;5033710;28;20045;-45
2021/01/19 05:01:55;;;;;;;1.20;1.00;;;14.10;59.90;;;;;;5033429;28;20508;-45
2021/01/19 05:04:44;;;;;;;2.58;0.93;;;14.10;59.90;;;;;;5033297;28;20029;-45
2021/01/19 05:07:30;;;;;;;1.60;1.00;;;14.10;59.90;;;;;;5016765;28;20049;-45
2021/01/19 05:10:13;;;;;;;1.90;1.10;;;14.10;59.90;;;;;;5033490;28;20284;-45
2021/01/19 05:12:42;;;;;;;1.23;0.82;;;14.10;59.90;;;;;;5015551;28;20150;-46
2021/01/19 05:15:12;;;;;;;1.65;0.88;;;14.10;59.90;;;;;;5033502;28;20025;-44
2021/01/19 05:17:39;;;;;;;1.88;0.98;;;14.10;59.90;;;;;;5033547;28;20064;-45
2021/01/19 05:20:06;;;;;;;1.48;0.90;;;14.10;59.90;;;;;;5033488;28;20084;-44
2021/01/19 05:22:32;;;;;;;2.35;1.10;;;14.10;59.90;;;;;;5033180;28;20060;-45
2021/01/19 05:24:58;;;;;;;1.90;0.70;;;14.10;59.90;;;;;;5015319;28;20047;-45
2021/01/19 05:27:24;;;;;;;1.73;1.05;;;14.10;60.00;;;;;;5033474;28;20109;-45
2021/01/19 05:30:02;;;;;;;1.30;0.85;;;14.10;59.90;;;;;;5032708;28;20108;-45
2021/01/19 05:32:36;;;;;;;2.85;0.98;;;14.10;59.90;;;;;;5033371;28;20029;-45
2021/01/19 05:35:15;;;;;;;1.10;0.80;;;14.00;59.90;;;;;;5032888;28;20025;-45
2021/01/19 05:37:57;;;;;;;1.48;0.95;;;14.10;60.00;;;;;;5033219;28;20022;-46
2021/01/19 05:40:23;;;;;;;2.97;1.08;;;13.90;59.90;;;;;;5032866;28;20030;-44
2021/01/19 05:42:49;;;;;;;1.58;1.13;;;14.00;60.00;;;;;;5014980;28;20128;-45
2021/01/19 05:45:15;;;;;;;1.20;1.10;;;14.00;60.10;;;;;;5032786;28;20113;-45
2021/01/19 05:47:42;;;;;;;1.95;1.05;;;14.00;60.10;;;;;;5032735;28;20036;-44
2021/01/19 05:50:09;;;;;;;1.83;1.00;;;14.10;60.20;;;;;;5015419;28;20026;-45
2021/01/19 05:52:36;;;;;;;3.55;1.23;;;14.00;60.20;;;;;;5032999;28;20052;-44
2021/01/19 05:55:02;;;;;;;2.20;0.98;;;14.00;60.30;;;;;;5032691;28;20106;-45
2021/01/19 05:57:28;;;;;;;2.47;0.90;;;14.00;78.00;;;;;;5032235;28;20029;-45
2021/01/19 05:59:59;;;;;;;2.63;0.80;;;14.00;60.40;;;;;;5032553;28;20029;-44
2021/01/19 06:02:44;;;;;;;0.88;0.65;;;14.00;60.40;;;;;;5032500;28;20048;-44
2021/01/19 06:05:12;;;;;;;1.73;0.73;;;14.00;60.40;;;;;;5031867;28;20034;-45
2021/01/19 06:07:39;;;;;;;1.55;0.95;;;14.10;60.70;;;;;;5033187;28;20049;-45
2021/01/19 06:10:11;;;;;;;2.90;0.90;;;14.00;60.80;;;;;;5032364;28;20030;-45
2021/01/19 06:12:37;;;;;;;1.77;0.82;;;14.20;60.90;;;;;;5032592;28;20032;-44
2021/01/19 06:15:03;;;;;;;1.30;0.70;;;14.30;60.80;;;;;;5032375;28;20423;-46
2021/01/19 06:17:29;;;;;;;2.33;1.50;;;14.40;60.70;;;;;;5032126;28;20483;-44
2021/01/19 06:19:59;;;;;;;1.13;0.60;;;14.90;60.90;;;;;;5032375;28;20026;-44
2021/01/19 06:22:26;;;;;;;1.90;0.98;;;14.70;60.40;;;;;;5032364;28;20029;-44
2021/01/19 06:24:54;;;;;;;1.23;0.88;;;14.80;60.40;;;;;;5032023;28;20034;-44
2021/01/19 06:27:22;;;;;;;1.95;0.80;;;14.80;60.20;;;;;;5032388;28;20427;-47
2021/01/19 06:29:57;;;;;;;1.23;0.80;;;14.90;60.10;;;;;;5032020;28;20064;-45
2021/01/19 06:32:23;;;;;;;1.75;0.85;;;14.90;59.90;;;;;;5032371;28;20030;-45
2021/01/19 06:34:49;;;;;;;1.63;0.75;;;14.90;59.80;;;;;;5031922;28;20109;-44
2021/01/19 06:37:30;;;;;;;0.90;0.70;;;15.00;59.70;;;;;;5032141;28;20029;-44
2021/01/19 06:40:00;;;;;;;1.20;0.90;;;15.00;59.70;;;;;;5032239;28;20057;-44
2021/01/19 06:42:28;;;;;;;1.92;1.00;;;15.00;59.60;;;;;;5030967;28;20053;-44
2021/01/19 06:44:58;;;;;;;1.08;0.60;;;15.00;59.50;;;;;;5032207;28;20022;-44
2021/01/19 06:47:24;;;;;;;1.00;0.80;;;15.10;59.50;;;;;;5032197;28;20104;-44
2021/01/19 06:49:56;;;;;;;1.40;0.77;;;15.10;59.40;;;;;;5031374;28;20027;-44
2021/01/19 06:52:22;;;;;;;0.70;0.70;;;15.30;59.50;;;;;;5031214;28;20030;-44
2021/01/19 06:54:53;;;;;;;1.88;0.70;;;15.10;59.40;;;;;;5030311;28;20105;-43
2021/01/19 06:57:48;;;;;;;2.55;0.70;;;15.20;76.40;;;;;;5031491;28;20101;-44
2021/01/19 07:00:20;;;;;;;1.77;1.00;;;15.10;59.10;;;;;;5013890;28;20464;-43
2021/01/19 07:02:50;;;;;;;1.50;0.60;;;15.10;59.20;;;;;;5031864;28;20056;-43
2021/01/19 07:05:20;;;;;;;;;;;15.20;59.20;;;;;;5032356;28;20418;-44
2021/01/19 07:07:54;;;;;;;3.13;0.85;;;15.10;59.20;;;;;;5011360;28;20367;-44
2021/01/19 07:10:48;;;;;;;1.42;0.80;;;15.10;59.10;;;;;;4994296;28;20492;-43
2021/01/19 07:13:24;;;;;;;2.85;0.77;;;15.10;59.20;;;;;;5012144;28;20037;-44
2021/01/19 07:16:05;;;;;;;2.17;0.70;;;15.00;59.00;;;;;;5011913;28;20107;-43
2021/01/19 07:18:43;;;;;;;2.17;1.00;;;15.00;59.20;;;;;;5012151;28;20022;-44
2021/01/19 07:21:16;;;;;;;2.80;0.90;;;14.90;59.30;;;;;;5012014;28;20065;-45
2021/01/19 07:23:44;;;;;;;0.80;0.70;;;15.00;59.40;;;;;;5012025;28;20137;-44
2021/01/19 07:26:17;;;;;;;1.23;0.75;;;14.90;59.30;;;;;;5012232;28;20041;-45
2021/01/19 07:28:43;;;;;;;2.60;1.00;;;14.90;59.50;;;;;;5011779;28;20109;-44
2021/01/19 07:31:10;;;;;;;4.25;0.95;;;14.80;59.50;;;;;;5011790;28;20082;-45
2021/01/19 07:33:39;;;;;;;2.25;0.95;;;14.80;59.50;;;;;;5010266;28;20357;-46
2021/01/19 07:36:05;;;;;;;4.03;1.10;;;14.80;59.50;;;;;;5012003;28;20080;-44
2021/01/19 07:38:31;;;;;;;1.95;0.70;;;14.80;59.60;;;;;;5011688;28;20049;-45
2021/01/19 07:40:57;;;;;;;1.08;0.70;;;14.70;59.50;;;;;;5011986;28;20313;-46
2021/01/19 07:43:24;;;;;;;1.98;0.80;;;14.60;59.50;;;;;;5011743;28;20029;-44
2021/01/19 07:45:54;;;;;;;2.90;1.02;;;14.70;59.60;;;;;;5011960;28;20022;-46
2021/01/19 07:48:35;;;;;;;0.93;0.80;;;14.70;59.70;;;;;;5011750;28;20693;-45
2021/01/19 07:51:16;;;;;;;1.58;0.70;;;14.70;59.70;;;;;;5011926;28;20030;-45
2021/01/19 07:53:49;;;;;;;2.25;0.88;;;14.70;59.70;;;;;;5013141;28;20109;-44
2021/01/19 07:56:28;;;;;;;1.75;1.10;;;14.60;59.70;;;;;;5015642;28;20026;-44
2021/01/19 07:58:56;;;;;;;1.87;0.60;;;14.60;59.80;;;;;;5014999;28;20022;-44
2021/01/19 08:01:35;;;;;;;0.80;0.70;;;14.60;59.90;;;;;;5015157;28;20284;-45
2021/01/19 08:04:29;;;;;;;1.42;0.60;;;14.50;59.80;;;;;;4998079;28;20033;-44
2021/01/19 08:06:54;;;;;;;2.30;0.80;;;14.50;59.90;;;;;;5017364;28;20045;-44
2021/01/19 08:09:21;;;;;;;2.58;0.77;;;14.50;60.00;;;;;;5034585;28;20064;-46
2021/01/19 08:11:47;;;;;;;1.23;0.77;;;14.50;59.80;;;;;;5034869;28;20025;-47
2021/01/19 08:14:13;;;;;;;1.60;1.00;;;14.60;60.00;;;;;;5034416;28;20469;-47
2021/01/19 08:16:42;;;;;;;1.58;0.68;;;14.80;60.10;;;;;;5034746;28;20078;-46
2021/01/19 08:19:11;;;;;;;1.40;0.80;;;14.60;60.00;;;;;;5034659;28;20107;-46
2021/01/19 08:21:50;;;;;;;1.48;0.52;;;14.60;59.90;;;;;;5034627;28;20041;-44
2021/01/19 08:24:19;;;;;;;2.30;0.82;;;14.60;59.90;;;;;;5034618;28;20030;-46
2021/01/19 08:26:45;;;;;;;1.42;0.75;;;14.70;59.90;;;;;;5034616;28;20288;-46
2021/01/19 08:29:17;;;;;;;1.15;0.68;;;14.60;59.90;;;;;;5034500;28;20668;-46
2021/01/19 08:32:14;;;;;;;1.48;0.85;;;14.70;59.90;;;;;;5034427;28;20230;-47
2021/01/19 08:34:41;;;;;;;3.20;0.93;;;14.70;59.90;;;;;;5034019;28;20047;-46
2021/01/19 08:37:13;;;;;;;1.88;0.50;;;14.70;59.80;;;;;;5034084;28;20030;-46
2021/01/19 08:39:38;;;;;;;2.05;0.90;;;14.70;59.90;;;;;;5034401;28;20040;-46
2021/01/19 08:42:04;;;;;;;0.77;0.63;;;14.70;59.90;;;;;;5033960;28;20038;-47
2021/01/19 08:44:30;;;;;;;1.25;0.57;;;14.70;59.90;;;;;;5034173;28;20037;-46
2021/01/19 08:46:55;;;;;;;1.77;0.60;;;14.70;59.80;;;;;;5033856;28;20512;-46
2021/01/19 08:49:21;;;;;;;2.53;1.05;;;14.70;59.80;;;;;;5033935;28;20022;-46
2021/01/19 08:51:48;;;;;;;2.25;0.95;;;14.70;59.80;;;;;;5033822;28;20017;-45
2021/01/19 08:54:14;;;;;;;1.10;0.60;;;14.70;59.80;;;;;;5033932;28;20026;-46
2021/01/19 08:56:46;;;;;;;1.52;0.90;;;14.70;59.90;;;;;;5034084;28;20026;-45
2021/01/19 08:59:13;;;;;;;3.30;0.95;;;14.80;59.90;;;;;;5033959;28;20023;-46
2021/01/19 09:01:52;;;;;;;2.47;0.80;;;14.70;59.70;;;;;;5033440;28;20104;-46
2021/01/19 09:04:36;;;;;;;1.13;0.60;;;14.80;59.90;;;;;;5033443;28;20037;-46
2021/01/19 09:07:07;;;;;;;3.22;1.00;;;15.00;60.00;;;;;;5033845;28;20060;-46
2021/01/19 09:09:34;;;;;;;1.42;0.70;;;14.80;59.90;;;;;;5033948;28;20435;-46
2021/01/19 09:12:00;;;;;;;3.63;1.27;;;14.90;59.80;;;;;;5033402;28;20427;-44
2021/01/19 09:14:26;;;;;;;3.15;0.80;;;14.90;59.70;;;;;;5033693;28;20022;-46
2021/01/19 09:16:53;;;;;;;1.33;1.00;;;14.90;59.70;;;;;;5033663;28;20056;-46
2021/01/19 09:19:19;;;;;;;1.70;0.60;;;15.00;59.70;;;;;;5033278;28;20482;-44
2021/01/19 09:21:45;;;;;;;2.83;0.50;;;15.00;59.60;;;;;;5033042;28;20045;-46
2021/01/19 09:24:21;;;;;;;2.65;0.80;;;15.00;59.60;;;;;;5015894;28;20025;-46
2021/01/19 09:26:58;;;;;;;2.13;0.82;;;15.00;59.60;;;;;;5033465;28;20072;-46
2021/01/19 09:29:26;;;;;;;1.60;0.65;;;15.00;59.50;;;;;;5033493;28;20049;-46
2021/01/19 09:31:52;;;;;;;2.63;0.93;;;15.00;59.50;;;;;;5033300;28;20376;-46
2021/01/19 09:34:21;;;;;;;1.10;0.60;;;15.00;59.40;;;;;;5032892;28;20030;-46
2021/01/19 09:36:49;;;;;;;2.25;0.85;;;15.00;60.10;;;;;;5033331;28;20101;-46
2021/01/19 09:39:24;;;;;;;6.22;0.93;;;15.10;59.50;;;;;;5033122;28;20112;-46
2021/01/19 09:41:51;;;;;;;1.92;0.43;;;15.10;59.50;;;;;;5032781;28;20821;-45
2021/01/19 09:44:18;;;;;;;1.08;0.63;;;15.10;59.40;;;;;;5032943;28;20021;-46
2021/01/19 09:46:44;;;;;;;1.73;0.88;;;15.10;59.50;;;;;;5032870;28;20057;-46
2021/01/19 09:49:09;;;;;;;1.13;0.52;;;15.10;59.40;;;;;;5032668;28;20455;-44
2021/01/19 09:51:35;;;;;;;0.80;0.38;;;15.40;59.60;;;;;;5032999;28;20075;-46
2021/01/19 09:54:00;;;;;;;1.63;0.68;;;15.10;59.40;;;;;;5032983;28;20048;-45
2021/01/19 09:56:27;;;;;;;0.95;0.50;;;15.10;59.40;;;;;;5032859;28;20097;-46
2021/01/19 09:59:03;;;;;;;1.20;0.43;;;15.00;59.50;;;;;;5032849;28;20018;-49
2021/01/19 10:01:29;;;;;;;1.48;0.60;;;15.00;59.50;;;;;;5031952;28;20021;-48
2021/01/19 10:03:55;;;;;;;0.55;0.52;;;15.00;59.40;;;;;;5032496;28;20026;-48
2021/01/19 10:06:23;;;;;;;3.08;0.60;;;15.00;59.50;;;;;;5032720;28;20021;-49
2021/01/19 10:08:52;;;;;;;1.00;0.50;;;15.00;59.60;;;;;;5033109;28;20048;-47
2021/01/19 10:11:34;;;;;;;0.50;0.40;;;15.10;59.30;;;;;;5032617;28;20031;-49
2021/01/19 10:14:14;;;;;;;0.75;0.60;;;15.10;59.30;;;;;;5032206;28;20021;-48
2021/01/19 10:16:48;;;;;;;1.40;0.30;;;15.10;59.90;;;;;;5032477;28;20021;-49
2021/01/19 10:19:27;;;;;;;0.88;0.38;;;15.10;59.10;;;;;;5032273;28;20380;-48
2021/01/19 10:21:55;;;;;;;2.00;0.70;;;15.10;59.00;;;;;;5032370;28;20034;-50
2021/01/19 10:24:22;;;;;;;2.15;0.45;;;15.20;59.10;;;;;;5032219;28;20128;-48
2021/01/19 10:27:05;;;;;;;1.17;0.40;;;15.20;59.10;;;;;;5032399;28;20040;-49
2021/01/19 10:29:36;;;;;;;0.90;0.50;;;15.20;59.00;;;;;;5032387;28;20057;-50
2021/01/19 10:32:05;;;;;;;2.85;0.52;;;15.30;59.00;;;;;;5032117;28;20022;-50
2021/01/19 10:34:33;;;;;;;0.40;0.30;;;15.30;59.10;;;;;;5031983;28;20823;-48
2021/01/19 10:36:59;;;;;;;0.60;0.40;;;15.30;59.00;;;;;;5032305;28;20029;-48
2021/01/19 10:39:26;;;;;;;0.80;0.30;;;15.30;58.90;;;;;;5032259;28;20172;-48
2021/01/19 10:41:53;;;;;;;2.03;0.60;;;15.40;58.90;;;;;;5032488;28;20420;-47
2021/01/19 10:44:22;;;;;;;2.72;0.57;;;15.40;59.00;;;;;;5031785;28;20472;-49
2021/01/19 10:46:55;;;;;;;2.53;0.43;;;15.40;59.10;;;;;;5031844;28;20056;-48
2021/01/19 10:49:27;;;;;;;0.55;0.30;;;15.40;58.70;;;;;;5031896;28;20030;-50
2021/01/19 10:51:53;;;;;;;0.70;0.50;;;15.50;58.80;;;;;;5031718;28;20416;-49
2021/01/19 10:54:21;;;;;;;0.88;0.40;;;15.50;58.70;;;;;;5032047;28;20137;-47
2021/01/19 10:57:00;;;;;;;0.65;0.43;;;15.40;58.70;;;;;;5031981;28;20207;-48
2021/01/19 10:59:25;;;;;;;2.05;0.30;;;15.50;58.60;;;;;;5032066;28;20064;-48
2021/01/19 11:01:51;;;;;;;1.95;0.50;;;15.50;58.60;;;;;;5031966;28;20029;-47
2021/01/19 11:04:17;;;;;;;1.42;0.50;;;;;;;;;;5031930;28;20415;-47
2021/01/19 11:06:42;;;;;;;1.15;0.35;;;15.60;58.20;;;;;;5033061;28;20056;-48
2021/01/19 11:09:08;;;;;;;1.67;0.50;;;15.50;58.70;;;;;;5031716;28;20416;-48
2021/01/19 11:11:37;;;;;;;0.85;0.40;;;15.60;58.60;;;;;;5031837;28;20468;-49
2021/01/19 11:14:04;;;;;;;1.80;0.43;;;15.60;58.60;;;;;;5031626;28;20026;-48
2021/01/19 11:16:32;;;;;;;0.82;0.32;;;15.40;58.60;;;;;;5031836;28;20025;-47
2021/01/19 11:18:59;;;;;;;0.40;0.30;;;15.60;58.80;;;;;;5031462;28;20092;-46
2021/01/19 11:21:25;;;;;;;0.77;0.30;;;15.60;58.70;;;;;;5030994;28;20037;-48
2021/01/19 11:23:51;;;;;;;2.60;0.63;;;15.60;58.70;;;;;;5031171;28;20109;-49
2021/01/19 11:26:16;;;;;;;1.38;0.50;;;15.80;58.90;;;;;;5031703;28;20530;-46
2021/01/19 11:28:42;;;;;;;0.82;0.40;;;15.50;58.90;;;;;;5033043;28;20022;-49
2021/01/19 11:31:08;;;;;;;1.17;0.55;;;15.40;58.80;;;;;;5035349;28;20029;-47
2021/01/19 11:33:33;;;;;;;1.63;0.52;;;15.40;58.90;;;;;;5017562;28;20049;-47
2021/01/19 11:35:59;;;;;;;1.63;0.60;;;15.40;59.00;;;;;;5017658;28;20488;-47
2021/01/19 11:38:24;;;;;;;0.68;0.50;;;15.30;58.90;;;;;;5035294;28;20036;-48
2021/01/19 11:40:50;;;;;;;0.93;0.30;;;15.30;59.00;;;;;;5017397;28;20022;-48
2021/01/19 11:43:16;;;;;;;1.55;0.40;;;15.30;59.10;;;;;;5035464;28;20037;-47
2021/01/19 11:45:41;;;;;;;1.05;0.45;;;15.20;59.10;;;;;;5035461;28;20017;-46
2021/01/19 11:48:07;;;;;;;1.27;0.40;;;15.20;59.30;;;;;;5017416;28;20022;-46
2021/01/19 11:50:33;;;;;;;1.77;0.50;;;15.20;59.30;;;;;;5034939;28;20026;-46
2021/01/19 11:52:58;;;;;;;1.58;0.40;;;15.10;59.30;;;;;;5035253;28;20024;-48
2021/01/19 11:55:24;;;;;;;1.85;0.30;;;15.10;59.30;;;;;;5034944;28;20037;-47
2021/01/19 11:57:49;;;;;;;0.60;0.50;;;15.10;59.40;;;;;;5034720;28;20018;-45
2021/01/19 12:00:15;;;;;;;1.35;0.40;;;15.10;59.40;;;;;;5035135;28;20033;-45
2021/01/19 12:02:41;;;;;;;2.72;0.60;;;15.10;59.50;;;;;;5035029;28;20423;-46
2021/01/19 12:05:07;;;;;;;2.13;0.45;;;15.00;59.50;;;;;;5035047;28;20575;-45
2021/01/19 12:07:37;;;;;;;1.90;0.50;;;15.00;59.60;;;;;;5017632;28;20104;-46
2021/01/19 12:10:03;;;;;;;1.20;0.50;;;15.00;59.60;;;;;;5034618;28;20025;-47
2021/01/19 12:12:29;;;;;;;1.27;0.40;;;15.00;59.60;;;;;;5034592;28;20032;-45
2021/01/19 12:14:54;;;;;;;1.10;0.45;;;15.00;59.70;;;;;;5034640;28;20468;-45
2021/01/19 12:17:20;;;;;;;1.33;0.40;;;15.00;60.40;;;;;;5034943;28;20464;-46
2021/01/19 12:19:46;;;;;;;1.90;0.50;;;14.90;59.80;;;;;;5034487;28;20053;-46
2021/01/19 12:22:11;;;;;;;3.50;0.40;;;14.90;59.80;;;;;;5016960;28;20076;-45
2021/01/19 12:24:38;;;;;;;1.42;0.80;;;14.90;59.80;;;;;;5034426;28;20022;-46
2021/01/19 12:27:04;;;;;;;1.48;0.70;;;14.90;59.90;;;;;;5034325;28;20025;-45
2021/01/19 12:29:30;;;;;;;2.03;0.40;;;14.90;60.00;;;;;;5033821;28;20384;-46
2021/01/19 12:32:06;;;;;;;2.03;0.32;;;14.90;60.00;;;;;;5016142;28;20112;-45
2021/01/19 12:34:31;;;;;;;1.23;0.52;;;14.90;60.00;;;;;;5016306;28;20032;-44
2021/01/19 12:36:57;;;;;;;3.95;0.70;;;14.90;60.10;;;;;;5034426;28;20021;-46
2021/01/19 12:39:23;;;;;;;2.22;0.50;;;14.80;60.10;;;;;;5033613;28;20403;-45
2021/01/19 12:41:48;;;;;;;3.03;0.80;;;14.80;60.10;;;;;;5033521;28;20540;-45
2021/01/19 12:44:15;;;;;;;3.92;0.50;;;14.80;60.20;;;;;;5033801;28;20026;-45
2021/01/19 12:46:40;;;;;;;2.58;0.70;;;14.80;60.20;;;;;;5034137;28;20024;-45
2021/01/19 12:49:07;;;;;;;2.70;0.60;;;14.80;60.20;;;;;;5034123;28;20131;-45
2021/01/19 12:51:33;;;;;;;2.60;0.70;;;14.80;60.30;;;;;;5033825;28;20029;-46
2021/01/19 12:53:58;;;;;;;2.25;0.57;;;14.80;60.30;;;;;;5034040;28;20028;-45
2021/01/19 12:56:24;;;;;;;2.55;0.75;;;14.80;60.40;;;;;;5033952;28;20010;-45
2021/01/19 12:58:49;;;;;;;2.10;0.73;;;14.90;60.40;;;;;;5033652;28;20384;-45